Time;durP1;ratioP1;P1;durP2;ratioP2;P2;SDS_P1;SDS_P2;PMS_P1;PMS_P2;Temp;Humidity;BMP_temperature;BMP_pressure;BME280_temperature;BME280_humidity;BME280_pressure;Samples;Min_cycle;Max_cycle;Signal;HPM_P1;HPM_P2
2022/11/09 00:04:27;;;;;;;1.35;0.50;;;13.90;99.90;;;;;;20822562;28;20076;-38
2022/11/09 00:14:29;;;;;;;5.18;0.60;;;13.90;99.90;;;;;;20821133;28;20029;-38
2022/11/09 00:24:30;;;;;;;2.35;0.90;;;13.90;99.90;;;;;;20815887;28;20198;-38
2022/11/09 00:34:31;;;;;;;1.45;0.45;;;13.90;99.90;;;;;;20812756;28;20080;-38
2022/11/09 00:44:32;;;;;;;15.10;0.65;;;14.00;99.90;;;;;;20816454;28;20084;-37
2022/11/09 00:54:33;;;;;;;2.35;0.63;;;13.90;99.90;;;;;;20812979;28;20091;-38
2022/11/09 01:04:34;;;;;;;1.42;0.57;;;13.80;99.90;;;;;;20816560;28;20143;-38
2022/11/09 01:14:36;;;;;;;4.88;2.05;;;13.70;99.90;;;;;;20820233;28;20516;-38
2022/11/09 01:24:37;;;;;;;8.55;1.40;;;13.60;99.90;;;;;;20808584;28;20920;-38
2022/11/09 01:34:39;;;;;;;3.38;0.65;;;13.40;99.90;;;;;;20808134;28;20677;-39
2022/11/09 01:44:40;;;;;;;1.73;0.60;;;13.40;99.90;;;;;;20814345;28;20173;-38
2022/11/09 01:54:46;;;;;;;3.20;0.73;;;13.30;99.90;;;;;;20812895;28;20037;-38
2022/11/09 02:04:52;;;;;;;9.32;1.77;;;13.20;99.90;;;;;;20803263;28;20597;-39
2022/11/09 02:14:55;;;;;;;3.72;0.95;;;13.10;99.90;;;;;;20817121;28;20519;-38
2022/11/09 02:24:56;;;;;;;1.15;0.55;;;13.10;99.90;;;;;;20808648;28;20077;-38
2022/11/09 02:34:57;;;;;;;6.00;1.00;;;13.20;99.90;;;;;;20809071;28;20104;-38
2022/11/09 02:44:58;;;;;;;2.15;0.80;;;13.20;99.90;;;;;;20811635;28;20061;-38
2022/11/09 02:55:00;;;;;;;7.90;1.27;;;13.20;99.90;;;;;;20808693;28;20070;-38
2022/11/09 03:05:01;;;;;;;1.90;0.70;;;13.10;99.90;;;;;;20811399;28;20233;-37
2022/11/09 03:15:05;;;;;;;1.35;0.63;;;12.90;99.90;;;;;;20782248;28;20049;-38
2022/11/09 03:25:07;;;;;;;3.95;1.25;;;12.90;99.90;;;;;;20771909;28;20065;-38
2022/11/09 03:35:08;;;;;;;4.20;0.82;;;12.80;99.90;;;;;;20761170;28;20072;-38
2022/11/09 03:45:09;;;;;;;2.58;1.05;;;12.90;99.90;;;;;;20771432;28;20076;-37
2022/11/09 03:55:11;;;;;;;2.55;0.80;;;12.80;99.90;;;;;;20775040;28;20088;-37
2022/11/09 04:05:12;;;;;;;2.60;0.70;;;12.70;99.90;;;;;;20774155;28;20073;-38
2022/11/09 04:15:14;;;;;;;4.47;1.52;;;12.70;99.90;;;;;;20783359;28;20107;-38
2022/11/09 04:25:15;;;;;;;5.22;1.88;;;12.60;99.90;;;;;;20761632;28;20092;-38
2022/11/09 04:35:16;;;;;;;3.00;0.63;;;12.50;99.90;;;;;;20777855;28;20142;-38
2022/11/09 04:45:18;;;;;;;2.10;0.50;;;12.50;99.90;;;;;;20764654;28;20100;-38
2022/11/09 04:55:19;;;;;;;7.35;1.15;;;12.40;99.90;;;;;;20754386;28;20068;-38
2022/11/09 05:05:20;;;;;;;3.88;0.60;;;12.40;99.90;;;;;;20758591;28;20155;-37
2022/11/09 05:15:21;;;;;;;1.50;0.57;;;12.40;99.90;;;;;;20799268;28;20323;-38
2022/11/09 05:25:22;;;;;;;5.22;0.80;;;12.30;99.90;;;;;;20795754;28;20044;-37
2022/11/09 05:35:23;;;;;;;0.88;0.38;;;12.20;99.90;;;;;;20807553;28;20044;-38
2022/11/09 05:45:24;;;;;;;1.50;0.60;;;12.20;99.90;;;;;;20790958;28;20167;-38
2022/11/09 05:55:26;;;;;;;3.63;1.35;;;11.90;99.90;;;;;;20777094;28;20061;-38
2022/11/09 06:05:27;;;;;;;1.80;0.80;;;11.70;99.90;;;;;;20782363;28;20087;-38
2022/11/09 06:15:28;;;;;;;2.58;0.77;;;11.70;99.90;;;;;;20734105;28;20060;-38
2022/11/09 06:25:30;;;;;;;3.95;1.23;;;11.70;99.90;;;;;;20724232;28;20542;-38
2022/11/09 06:35:31;;;;;;;5.28;2.60;;;11.70;99.90;;;;;;20706529;28;20110;-38
2022/11/09 06:45:33;;;;;;;2.30;0.73;;;11.70;99.90;;;;;;20713535;28;20038;-38
2022/11/09 06:55:35;;;;;;;2.40;0.93;;;11.80;99.90;;;;;;20712561;28;20060;-37
2022/11/09 07:05:39;;;;;;;17.27;2.38;;;11.80;99.90;;;;;;20750026;28;20585;-38
2022/11/09 07:15:40;;;;;;;2.05;0.70;;;11.90;99.90;;;;;;20749268;28;20102;-38
2022/11/09 07:25:41;;;;;;;9.45;1.88;;;11.90;99.90;;;;;;20767244;28;20045;-38
2022/11/09 07:35:42;;;;;;;3.17;0.93;;;12.00;99.90;;;;;;20776034;28;21817;-38
2022/11/09 07:45:43;;;;;;;5.43;1.55;;;12.10;99.90;;;;;;20766687;28;20521;-38
2022/11/09 07:55:44;;;;;;;3.28;1.13;;;12.20;99.90;;;;;;20782715;28;20037;-39
2022/11/09 08:05:45;;;;;;;5.80;1.08;;;12.30;99.90;;;;;;20759407;28;20534;-39
2022/11/09 08:15:46;;;;;;;2.40;1.02;;;12.40;99.90;;;;;;20773911;28;20053;-38
2022/11/09 08:25:49;;;;;;;3.55;1.20;;;12.60;99.90;;;;;;20753053;28;20069;-38
2022/11/09 08:35:50;;;;;;;5.22;1.65;;;12.70;99.90;;;;;;20746764;28;20095;-38
2022/11/09 08:45:51;;;;;;;2.53;0.90;;;12.70;99.90;;;;;;20783636;28;20107;-38
2022/11/09 08:55:52;;;;;;;2.22;0.63;;;12.80;99.90;;;;;;20759545;28;20105;-39
2022/11/09 09:05:53;;;;;;;2.95;1.67;;;12.90;99.90;;;;;;20767645;28;20192;-39
2022/11/09 09:15:54;;;;;;;2.00;0.57;;;13.00;99.90;;;;;;20798460;28;20045;-38
2022/11/09 09:25:56;;;;;;;1.83;0.75;;;13.10;99.90;;;;;;20798555;28;20110;-38
2022/11/09 09:35:57;;;;;;;5.00;1.90;;;13.10;99.90;;;;;;20811200;28;20041;-38
2022/11/09 09:46:01;;;;;;;2.05;0.90;;;13.10;99.90;;;;;;20804271;28;20045;-38
2022/11/09 09:56:14;;;;;;;2.17;1.20;;;13.20;99.90;;;;;;20800774;28;20215;-38
2022/11/09 10:06:42;;;;;;;2.25;1.00;;;13.20;99.90;;;;;;20787178;28;20048;-38
2022/11/09 10:16:55;;;;;;;2.90;1.07;;;13.40;99.90;;;;;;20804520;28;20969;-38
2022/11/09 10:26:58;;;;;;;4.10;1.50;;;13.40;99.90;;;;;;20789916;28;20071;-37
2022/11/09 10:37:26;;;;;;;1.83;1.00;;;13.40;99.90;;;;;;20784449;28;20193;-37
2022/11/09 10:47:27;;;;;;;;;;;13.40;99.90;;;;;;20774279;28;20098;-38
2022/11/09 10:57:29;;;;;;;2.92;1.10;;;13.50;99.90;;;;;;20789950;28;19924;-37
2022/11/09 11:07:30;;;;;;;3.15;1.10;;;13.60;99.90;;;;;;20808081;28;20564;-37
2022/11/09 11:17:36;;;;;;;4.97;1.75;;;13.60;99.90;;;;;;20804403;28;20120;-37
2022/11/09 11:27:47;;;;;;;2.33;1.25;;;13.70;99.90;;;;;;20810585;28;20101;-38
2022/11/09 11:38:00;;;;;;;1.65;0.63;;;13.80;99.90;;;;;;20812714;28;20839;-38
2022/11/09 11:48:10;;;;;;;0.68;0.28;;;13.50;99.90;;;;;;20848417;28;20459;-37
2022/11/09 11:58:22;;;;;;;2.05;0.75;;;12.90;99.90;;;;;;20809543;28;20540;-38
2022/11/09 12:08:50;;;;;;;1.05;0.40;;;13.10;99.90;;;;;;20759446;28;20061;-36
2022/11/09 12:18:57;;;;;;;1.03;0.20;;;14.20;99.90;;;;;;20776797;28;20739;-38
2022/11/09 12:29:17;;;;;;;1.40;0.57;;;14.70;99.90;;;;;;20791433;28;21043;-38
2022/11/09 12:39:38;;;;;;;2.53;1.17;;;15.00;99.90;;;;;;20786236;28;20053;-38
2022/11/09 12:49:41;;;;;;;1.48;0.70;;;14.30;99.90;;;;;;20788787;28;20679;-38
2022/11/09 12:59:52;;;;;;;2.20;0.80;;;14.50;99.90;;;;;;20785375;28;20826;-37
2022/11/09 13:09:55;;;;;;;4.38;0.75;;;14.40;99.90;;;;;;20802141;28;20533;-37
2022/11/09 13:19:56;;;;;;;2.20;1.05;;;14.10;99.90;;;;;;20798135;28;20128;-39
2022/11/09 13:29:58;;;;;;;1.35;0.50;;;14.00;99.90;;;;;;20790818;28;20187;-37
2022/11/09 13:39:59;;;;;;;3.35;1.20;;;13.90;99.90;;;;;;20780459;28;20067;-37
2022/11/09 13:50:15;;;;;;;0.70;0.30;;;14.20;99.90;;;;;;20774011;28;20045;-37
2022/11/09 14:00:22;;;;;;;0.95;0.30;;;14.20;99.90;;;;;;20794045;28;20041;-37
2022/11/09 14:10:44;;;;;;;1.87;0.50;;;14.20;99.90;;;;;;20808568;28;20600;-37
2022/11/09 14:21:39;;;;;;;2.42;1.02;;;14.20;99.90;;;;;;20787196;28;22341;-37
2022/11/09 14:31:42;;;;;;;3.97;0.82;;;13.70;99.90;;;;;;20697555;28;20883;-37
2022/11/09 14:41:44;;;;;;;1.27;0.30;;;13.60;99.90;;;;;;20795114;28;22421;-37
2022/11/09 14:51:47;;;;;;;1.42;0.65;;;13.40;99.90;;;;;;20780212;28;22111;-37
2022/11/09 15:02:09;;;;;;;1.20;0.38;;;12.80;99.90;;;;;;20806053;28;20077;-36
2022/11/09 15:12:15;;;;;;;1.50;0.68;;;12.40;99.90;;;;;;20806015;28;20049;-37
2022/11/09 15:22:38;;;;;;;1.60;0.73;;;12.40;99.90;;;;;;20801941;28;20512;-37
2022/11/09 15:32:40;;;;;;;1.73;0.70;;;12.50;99.90;;;;;;20786316;28;23406;-38
2022/11/09 15:42:41;;;;;;;2.33;0.68;;;12.60;99.90;;;;;;20781970;28;20045;-38
2022/11/09 15:52:43;;;;;;;1.15;0.30;;;12.60;99.90;;;;;;20800351;28;20070;-38
2022/11/09 16:02:44;;;;;;;1.50;0.38;;;12.60;99.90;;;;;;20819185;28;20518;-38
2022/11/09 16:12:46;;;;;;;1.45;0.60;;;12.80;99.90;;;;;;20817763;28;20254;-38
2022/11/09 16:22:47;;;;;;;2.97;1.40;;;12.90;99.90;;;;;;20799665;28;20464;-38
2022/11/09 16:32:48;;;;;;;1.40;0.52;;;12.90;99.90;;;;;;20798207;28;20073;-38
2022/11/09 16:42:50;;;;;;;0.95;0.65;;;12.80;99.90;;;;;;20810690;28;20041;-38
2022/11/09 16:52:51;;;;;;;3.28;1.83;;;12.70;99.90;;;;;;20811310;28;21030;-38
2022/11/09 17:02:52;;;;;;;2.45;0.90;;;12.70;99.90;;;;;;20806811;28;20054;-38
2022/11/09 17:12:53;;;;;;;2.13;0.65;;;12.80;99.90;;;;;;20814916;28;20115;-37
2022/11/09 17:22:54;;;;;;;1.08;0.30;;;12.70;99.90;;;;;;20826763;28;20052;-38
2022/11/09 17:32:55;;;;;;;3.42;1.75;;;12.60;99.90;;;;;;20816953;28;20104;-38
2022/11/09 17:42:58;;;;;;;2.30;0.57;;;12.60;99.90;;;;;;20789559;28;20040;-38
2022/11/09 17:52:59;;;;;;;2.20;0.40;;;12.60;99.90;;;;;;20801174;28;20531;-37
2022/11/09 18:03:00;;;;;;;1.02;0.40;;;12.20;99.90;;;;;;20814055;28;20401;-37
2022/11/09 18:13:02;;;;;;;3.70;1.27;;;11.90;99.90;;;;;;20786637;28;20046;-37
2022/11/09 18:23:02;;;;;;;2.70;1.38;;;11.70;99.90;;;;;;20789744;28;20127;-37
2022/11/09 18:33:03;;;;;;;2.78;1.05;;;11.60;99.90;;;;;;20800096;28;20068;-38
2022/11/09 18:43:04;;;;;;;2.25;0.85;;;11.50;99.90;;;;;;20788228;28;20041;-37
2022/11/09 18:53:05;;;;;;;3.33;1.02;;;11.50;99.90;;;;;;20784140;28;20398;-37
2022/11/09 19:03:17;;;;;;;2.45;1.08;;;11.50;99.90;;;;;;20796299;28;20068;-37
2022/11/09 19:13:18;;;;;;;2.53;1.27;;;11.40;99.90;;;;;;20788506;28;20061;-37
2022/11/09 19:23:19;;;;;;;2.05;0.82;;;11.30;99.90;;;;;;20797427;28;20041;-37
2022/11/09 19:33:20;;;;;;;4.25;1.25;;;11.30;99.90;;;;;;20791998;28;20064;-37
2022/11/09 19:43:21;;;;;;;1.80;0.80;;;11.30;99.90;;;;;;20802037;28;20152;-37
2022/11/09 19:53:22;;;;;;;4.70;1.42;;;11.30;99.90;;;;;;20809484;28;20124;-38
2022/11/09 20:03:23;;;;;;;1.38;0.45;;;11.30;99.90;;;;;;20798665;28;20276;-37
2022/11/09 20:13:24;;;;;;;4.95;1.70;;;11.20;99.90;;;;;;20796604;28;20076;-37
2022/11/09 20:23:25;;;;;;;3.97;1.83;;;11.20;99.90;;;;;;20804270;28;20154;-37
2022/11/09 20:33:26;;;;;;;1.48;0.52;;;11.20;99.90;;;;;;20807231;28;20040;-37
2022/11/09 20:43:28;;;;;;;2.67;0.82;;;11.20;99.90;;;;;;20810171;28;20099;-37
2022/11/09 20:53:29;;;;;;;4.43;1.33;;;11.10;99.90;;;;;;20809695;28;20061;-37
2022/11/09 21:03:31;;;;;;;7.40;1.80;;;11.10;99.90;;;;;;20802711;28;20639;-37
2022/11/09 21:13:32;;;;;;;3.72;1.90;;;11.00;99.90;;;;;;20800976;28;20118;-38
2022/11/09 21:33:54;;;;;;;2.80;0.52;;;11.00;99.90;;;;;;20787319;28;22579;-38
2022/11/09 21:43:55;;;;;;;2.47;1.02;;;11.10;99.90;;;;;;20761968;28;20045;-38
2022/11/09 21:53:56;;;;;;;3.38;1.17;;;11.20;99.90;;;;;;20784953;28;22200;-38
2022/11/09 22:03:58;;;;;;;12.75;1.90;;;11.20;99.90;;;;;;20799466;28;20065;-38
2022/11/09 22:24:18;;;;;;;4.25;1.20;;;10.90;99.90;;;;;;20799799;28;20076;-38
2022/11/09 22:34:19;;;;;;;4.60;0.80;;;10.80;99.90;;;;;;20808708;28;20432;-37
2022/11/09 22:44:20;;;;;;;6.88;2.08;;;10.70;99.90;;;;;;20797212;28;20056;-38
2022/11/09 22:54:21;;;;;;;4.53;1.40;;;10.60;99.90;;;;;;20784967;28;20505;-37
2022/11/09 23:04:22;;;;;;;1.30;0.60;;;10.70;99.90;;;;;;20785040;28;20076;-37
2022/11/09 23:35:03;;;;;;;5.00;1.48;;;10.70;99.90;;;;;;20790544;28;20128;-38
2022/11/09 23:45:06;;;;;;;9.52;2.75;;;10.60;99.90;;;;;;20798814;28;20135;-37
2022/11/09 23:55:07;;;;;;;4.93;2.17;;;10.50;99.90;;;;;;20793794;28;20638;-37
